sensor_id;sensor_type;location;lat;lon;timestamp;P1;durP1;ratioP1;P2;durP2;ratioP2
30185;SDS011;31152;49.190;8.122;2023-02-01T00:00:31;13.32;;;6.70;;
30185;SDS011;31152;49.190;8.122;2023-02-01T00:03:00;15.65;;;7.55;;
30185;SDS011;31152;49.190;8.122;2023-02-01T00:05:27;13.38;;;7.15;;
30185;SDS011;31152;49.190;8.122;2023-02-01T00:07:56;14.93;;;6.70;;
30185;SDS011;31152;49.190;8.122;2023-02-01T00:10:22;17.58;;;6.20;;
30185;SDS011;31152;49.190;8.122;2023-02-01T00:12:49;13.60;;;6.15;;
30185;SDS011;31152;49.190;8.122;2023-02-01T00:15:16;12.50;;;6.35;;
30185;SDS011;31152;49.190;8.122;2023-02-01T00:17:43;10.85;;;6.25;;
30185;SDS011;31152;49.190;8.122;2023-02-01T00:20:12;15.05;;;7.32;;
30185;SDS011;31152;49.190;8.122;2023-02-01T00:22:39;12.75;;;6.68;;
30185;SDS011;31152;49.190;8.122;2023-02-01T00:25:06;10.35;;;6.25;;
30185;SDS011;31152;49.190;8.122;2023-02-01T00:27:33;9.80;;;5.97;;
30185;SDS011;31152;49.190;8.122;2023-02-01T00:30:00;11.55;;;6.88;;
30185;SDS011;31152;49.190;8.122;2023-02-01T00:32:29;11.45;;;5.93;;
30185;SDS011;31152;49.190;8.122;2023-02-01T00:34:57;10.25;;;5.85;;
30185;SDS011;31152;49.190;8.122;2023-02-01T00:37:26;11.65;;;5.88;;
30185;SDS011;31152;49.190;8.122;2023-02-01T00:39:53;10.93;;;5.80;;
30185;SDS011;31152;49.190;8.122;2023-02-01T00:42:24;12.07;;;5.38;;
30185;SDS011;31152;49.190;8.122;2023-02-01T00:44:52;10.27;;;5.60;;
30185;SDS011;31152;49.190;8.122;2023-02-01T00:47:19;11.70;;;6.00;;
30185;SDS011;31152;49.190;8.122;2023-02-01T00:49:46;10.18;;;5.35;;
30185;SDS011;31152;49.190;8.122;2023-02-01T00:52:12;11.10;;;5.82;;
30185;SDS011;31152;49.190;8.122;2023-02-01T00:54:39;10.95;;;5.47;;
30185;SDS011;31152;49.190;8.122;2023-02-01T00:57:06;11.73;;;5.80;;
30185;SDS011;31152;49.190;8.122;2023-02-01T00:59:32;12.50;;;6.15;;
30185;SDS011;31152;49.190;8.122;2023-02-01T01:02:02;12.65;;;5.57;;
30185;SDS011;31152;49.190;8.122;2023-02-01T01:04:28;9.60;;;5.63;;
30185;SDS011;31152;49.190;8.122;2023-02-01T01:06:58;8.50;;;5.07;;
30185;SDS011;31152;49.190;8.122;2023-02-01T01:09:24;11.63;;;5.95;;
30185;SDS011;31152;49.190;8.122;2023-02-01T01:11:51;16.08;;;6.18;;
30185;SDS011;31152;49.190;8.122;2023-02-01T01:14:18;11.43;;;5.55;;
30185;SDS011;31152;49.190;8.122;2023-02-01T01:16:45;12.93;;;5.80;;
30185;SDS011;31152;49.190;8.122;2023-02-01T01:19:12;11.57;;;5.88;;
30185;SDS011;31152;49.190;8.122;2023-02-01T01:21:38;13.80;;;6.07;;
30185;SDS011;31152;49.190;8.122;2023-02-01T01:24:07;11.23;;;5.97;;
30185;SDS011;31152;49.190;8.122;2023-02-01T01:26:34;14.93;;;6.72;;
30185;SDS011;31152;49.190;8.122;2023-02-01T01:29:01;12.23;;;6.03;;
30185;SDS011;31152;49.190;8.122;2023-02-01T01:31:28;14.82;;;7.07;;
30185;SDS011;31152;49.190;8.122;2023-02-01T01:33:57;13.57;;;6.70;;
30185;SDS011;31152;49.190;8.122;2023-02-01T01:36:25;11.23;;;6.15;;
30185;SDS011;31152;49.190;8.122;2023-02-01T01:38:52;11.90;;;6.78;;
30185;SDS011;31152;49.190;8.122;2023-02-01T01:41:20;13.10;;;6.63;;
30185;SDS011;31152;49.190;8.122;2023-02-01T01:46:30;14.63;;;8.23;;
30185;SDS011;31152;49.190;8.122;2023-02-01T01:49:01;17.02;;;7.22;;
30185;SDS011;31152;49.190;8.122;2023-02-01T01:51:44;11.85;;;6.90;;
30185;SDS011;31152;49.190;8.122;2023-02-01T01:54:19;13.07;;;6.68;;
30185;SDS011;31152;49.190;8.122;2023-02-01T01:56:57;18.33;;;6.53;;
30185;SDS011;31152;49.190;8.122;2023-02-01T01:59:28;13.20;;;6.63;;
30185;SDS011;31152;49.190;8.122;2023-02-01T02:01:59;13.63;;;6.15;;
30185;SDS011;31152;49.190;8.122;2023-02-01T02:04:26;13.55;;;6.88;;
30185;SDS011;31152;49.190;8.122;2023-02-01T02:07:10;12.45;;;6.85;;
30185;SDS011;31152;49.190;8.122;2023-02-01T02:09:42;11.93;;;6.28;;
30185;SDS011;31152;49.190;8.122;2023-02-01T02:12:23;16.23;;;6.90;;
30185;SDS011;31152;49.190;8.122;2023-02-01T02:14:52;13.73;;;5.85;;
30185;SDS011;31152;49.190;8.122;2023-02-01T02:17:29;16.27;;;6.63;;
30185;SDS011;31152;49.190;8.122;2023-02-01T02:20:32;12.07;;;6.15;;
30185;SDS011;31152;49.190;8.122;2023-02-01T02:23:29;13.95;;;5.60;;
30185;SDS011;31152;49.190;8.122;2023-02-01T02:26:28;11.77;;;6.00;;
30185;SDS011;31152;49.190;8.122;2023-02-01T02:29:19;14.98;;;5.78;;
30185;SDS011;31152;49.190;8.122;2023-02-01T02:37:46;12.85;;;5.43;;
30185;SDS011;31152;49.190;8.122;2023-02-01T02:42:59;9.93;;;5.03;;
30185;SDS011;31152;49.190;8.122;2023-02-01T02:46:00;12.75;;;6.53;;
30185;SDS011;31152;49.190;8.122;2023-02-01T02:48:53;12.23;;;5.32;;
30185;SDS011;31152;49.190;8.122;2023-02-01T02:54:32;11.55;;;5.47;;
30185;SDS011;31152;49.190;8.122;2023-02-01T02:57:18;13.57;;;6.05;;
30185;SDS011;31152;49.190;8.122;2023-02-01T03:00:10;15.00;;;6.03;;
30185;SDS011;31152;49.190;8.122;2023-02-01T03:03:00;15.70;;;6.05;;
30185;SDS011;31152;49.190;8.122;2023-02-01T03:05:47;13.23;;;5.75;;
30185;SDS011;31152;49.190;8.122;2023-02-01T03:08:18;18.13;;;6.10;;
30185;SDS011;31152;49.190;8.122;2023-02-01T03:11:23;13.52;;;6.15;;
30185;SDS011;31152;49.190;8.122;2023-02-01T03:13:46;16.38;;;6.25;;
30185;SDS011;31152;49.190;8.122;2023-02-01T03:19:01;16.15;;;5.93;;
30185;SDS011;31152;49.190;8.122;2023-02-01T03:21:32;12.77;;;5.93;;
30185;SDS011;31152;49.190;8.122;2023-02-01T03:24:10;17.70;;;6.90;;
30185;SDS011;31152;49.190;8.122;2023-02-01T03:26:49;14.27;;;6.60;;
30185;SDS011;31152;49.190;8.122;2023-02-01T03:29:27;15.10;;;6.63;;
30185;SDS011;31152;49.190;8.122;2023-02-01T03:32:00;21.73;;;6.80;;
30185;SDS011;31152;49.190;8.122;2023-02-01T03:34:27;16.85;;;7.75;;
30185;SDS011;31152;49.190;8.122;2023-02-01T03:37:02;16.23;;;7.18;;
30185;SDS011;31152;49.190;8.122;2023-02-01T03:39:34;16.50;;;6.60;;
30185;SDS011;31152;49.190;8.122;2023-02-01T03:42:12;15.85;;;6.78;;
30185;SDS011;31152;49.190;8.122;2023-02-01T03:44:54;14.82;;;6.45;;
30185;SDS011;31152;49.190;8.122;2023-02-01T03:47:25;15.43;;;7.57;;
30185;SDS011;31152;49.190;8.122;2023-02-01T03:52:35;16.58;;;7.30;;
30185;SDS011;31152;49.190;8.122;2023-02-01T03:55:04;12.15;;;6.28;;
30185;SDS011;31152;49.190;8.122;2023-02-01T03:57:33;11.55;;;5.88;;
30185;SDS011;31152;49.190;8.122;2023-02-01T04:02:34;15.27;;;5.63;;
30185;SDS011;31152;49.190;8.122;2023-02-01T04:05:01;9.93;;;5.10;;
30185;SDS011;31152;49.190;8.122;2023-02-01T04:07:30;12.00;;;5.40;;
30185;SDS011;31152;49.190;8.122;2023-02-01T04:09:56;9.05;;;4.72;;
30185;SDS011;31152;49.190;8.122;2023-02-01T04:12:23;16.13;;;5.55;;
30185;SDS011;31152;49.190;8.122;2023-02-01T04:14:52;10.88;;;5.22;;
30185;SDS011;31152;49.190;8.122;2023-02-01T04:17:21;11.98;;;5.30;;
30185;SDS011;31152;49.190;8.122;2023-02-01T04:19:50;12.23;;;5.38;;
30185;SDS011;31152;49.190;8.122;2023-02-01T04:22:20;12.00;;;6.05;;
30185;SDS011;31152;49.190;8.122;2023-02-01T04:24:47;10.05;;;5.40;;
30185;SDS011;31152;49.190;8.122;2023-02-01T04:27:14;12.70;;;5.53;;
30185;SDS011;31152;49.190;8.122;2023-02-01T04:29:41;10.02;;;4.20;;
30185;SDS011;31152;49.190;8.122;2023-02-01T04:32:08;8.95;;;4.10;;
30185;SDS011;31152;49.190;8.122;2023-02-01T04:34:37;8.45;;;3.85;;
30185;SDS011;31152;49.190;8.122;2023-02-01T04:37:03;11.35;;;3.00;;
30185;SDS011;31152;49.190;8.122;2023-02-01T04:39:33;10.40;;;3.38;;
30185;SDS011;31152;49.190;8.122;2023-02-01T04:42:00;8.23;;;3.42;;
30185;SDS011;31152;49.190;8.122;2023-02-01T04:44:26;8.15;;;4.05;;
30185;SDS011;31152;49.190;8.122;2023-02-01T04:46:53;10.05;;;3.75;;
30185;SDS011;31152;49.190;8.122;2023-02-01T04:49:23;7.22;;;3.70;;
30185;SDS011;31152;49.190;8.122;2023-02-01T04:51:51;9.45;;;4.05;;
30185;SDS011;31152;49.190;8.122;2023-02-01T04:54:18;11.00;;;4.45;;
30185;SDS011;31152;49.190;8.122;2023-02-01T04:56:45;11.68;;;5.13;;
30185;SDS011;31152;49.190;8.122;2023-02-01T04:59:13;12.07;;;5.38;;
30185;SDS011;31152;49.190;8.122;2023-02-01T05:01:43;13.73;;;4.82;;
30185;SDS011;31152;49.190;8.122;2023-02-01T05:04:14;12.65;;;5.00;;
30185;SDS011;31152;49.190;8.122;2023-02-01T05:06:41;10.63;;;5.03;;
30185;SDS011;31152;49.190;8.122;2023-02-01T05:09:07;7.25;;;4.78;;
30185;SDS011;31152;49.190;8.122;2023-02-01T05:11:34;14.13;;;5.65;;
30185;SDS011;31152;49.190;8.122;2023-02-01T05:14:19;8.63;;;4.38;;
30185;SDS011;31152;49.190;8.122;2023-02-01T05:16:46;10.75;;;4.97;;
30185;SDS011;31152;49.190;8.122;2023-02-01T05:19:13;13.05;;;4.93;;
30185;SDS011;31152;49.190;8.122;2023-02-01T05:21:40;12.68;;;4.85;;
30185;SDS011;31152;49.190;8.122;2023-02-01T05:24:07;13.32;;;4.57;;
30185;SDS011;31152;49.190;8.122;2023-02-01T05:26:48;12.23;;;4.60;;
30185;SDS011;31152;49.190;8.122;2023-02-01T05:29:17;16.80;;;6.10;;
30185;SDS011;31152;49.190;8.122;2023-02-01T05:31:45;17.85;;;5.47;;
30185;SDS011;31152;49.190;8.122;2023-02-01T05:34:12;12.43;;;5.40;;
30185;SDS011;31152;49.190;8.122;2023-02-01T05:36:42;16.25;;;5.65;;
30185;SDS011;31152;49.190;8.122;2023-02-01T05:39:08;11.25;;;5.15;;
30185;SDS011;31152;49.190;8.122;2023-02-01T05:41:36;11.48;;;4.72;;
30185;SDS011;31152;49.190;8.122;2023-02-01T05:44:05;10.98;;;4.55;;
30185;SDS011;31152;49.190;8.122;2023-02-01T05:46:34;12.32;;;4.97;;
30185;SDS011;31152;49.190;8.122;2023-02-01T05:49:02;11.88;;;4.13;;
30185;SDS011;31152;49.190;8.122;2023-02-01T05:51:29;11.13;;;3.45;;
30185;SDS011;31152;49.190;8.122;2023-02-01T05:53:59;9.32;;;3.75;;
30185;SDS011;31152;49.190;8.122;2023-02-01T05:56:26;5.15;;;2.70;;
30185;SDS011;31152;49.190;8.122;2023-02-01T05:58:52;6.25;;;3.17;;
30185;SDS011;31152;49.190;8.122;2023-02-01T06:01:19;5.25;;;2.78;;
30185;SDS011;31152;49.190;8.122;2023-02-01T06:03:51;6.65;;;2.65;;
30185;SDS011;31152;49.190;8.122;2023-02-01T06:06:25;6.68;;;2.92;;
30185;SDS011;31152;49.190;8.122;2023-02-01T06:08:52;6.22;;;2.60;;
30185;SDS011;31152;49.190;8.122;2023-02-01T06:11:18;6.00;;;2.75;;
30185;SDS011;31152;49.190;8.122;2023-02-01T06:13:57;5.60;;;2.72;;
30185;SDS011;31152;49.190;8.122;2023-02-01T06:16:24;5.40;;;2.70;;
30185;SDS011;31152;49.190;8.122;2023-02-01T06:18:54;7.13;;;3.30;;
30185;SDS011;31152;49.190;8.122;2023-02-01T06:21:20;13.57;;;4.13;;
30185;SDS011;31152;49.190;8.122;2023-02-01T06:23:51;17.15;;;4.15;;
30185;SDS011;31152;49.190;8.122;2023-02-01T06:26:23;8.35;;;3.40;;
30185;SDS011;31152;49.190;8.122;2023-02-01T06:28:50;8.52;;;4.32;;
30185;SDS011;31152;49.190;8.122;2023-02-01T06:31:17;11.27;;;4.68;;
30185;SDS011;31152;49.190;8.122;2023-02-01T06:33:44;11.40;;;3.80;;
30185;SDS011;31152;49.190;8.122;2023-02-01T06:36:13;10.27;;;4.70;;
30185;SDS011;31152;49.190;8.122;2023-02-01T06:38:41;13.77;;;4.72;;
30185;SDS011;31152;49.190;8.122;2023-02-01T06:41:08;12.48;;;5.00;;
30185;SDS011;31152;49.190;8.122;2023-02-01T06:43:35;15.55;;;5.43;;
30185;SDS011;31152;49.190;8.122;2023-02-01T06:46:05;23.63;;;5.63;;
30185;SDS011;31152;49.190;8.122;2023-02-01T06:48:33;20.20;;;5.50;;
30185;SDS011;31152;49.190;8.122;2023-02-01T06:51:00;16.77;;;5.22;;
30185;SDS011;31152;49.190;8.122;2023-02-01T06:53:29;20.17;;;5.63;;
30185;SDS011;31152;49.190;8.122;2023-02-01T06:56:01;21.30;;;5.50;;
30185;SDS011;31152;49.190;8.122;2023-02-01T06:58:29;16.50;;;5.07;;
30185;SDS011;31152;49.190;8.122;2023-02-01T07:00:57;17.48;;;4.93;;
30185;SDS011;31152;49.190;8.122;2023-02-01T07:03:26;12.15;;;4.22;;
30185;SDS011;31152;49.190;8.122;2023-02-01T07:05:59;20.80;;;5.20;;
30185;SDS011;31152;49.190;8.122;2023-02-01T07:08:29;12.55;;;4.40;;
30185;SDS011;31152;49.190;8.122;2023-02-01T07:11:00;18.60;;;4.22;;
30185;SDS011;31152;49.190;8.122;2023-02-01T07:13:33;14.38;;;4.60;;
30185;SDS011;31152;49.190;8.122;2023-02-01T07:16:00;18.83;;;4.13;;
30185;SDS011;31152;49.190;8.122;2023-02-01T07:18:29;9.63;;;3.10;;
30185;SDS011;31152;49.190;8.122;2023-02-01T07:20:56;18.77;;;4.32;;
30185;SDS011;31152;49.190;8.122;2023-02-01T07:23:24;12.00;;;3.80;;
30185;SDS011;31152;49.190;8.122;2023-02-01T07:25:54;12.18;;;3.20;;
30185;SDS011;31152;49.190;8.122;2023-02-01T07:28:26;11.77;;;3.53;;
30185;SDS011;31152;49.190;8.122;2023-02-01T07:30:54;15.50;;;3.63;;
30185;SDS011;31152;49.190;8.122;2023-02-01T07:33:22;15.05;;;3.58;;
30185;SDS011;31152;49.190;8.122;2023-02-01T07:35:53;16.58;;;4.05;;
30185;SDS011;31152;49.190;8.122;2023-02-01T07:38:23;13.02;;;3.58;;
30185;SDS011;31152;49.190;8.122;2023-02-01T07:40:50;16.30;;;4.00;;
30185;SDS011;31152;49.190;8.122;2023-02-01T07:43:16;17.65;;;3.90;;
30185;SDS011;31152;49.190;8.122;2023-02-01T07:45:49;19.98;;;4.30;;
30185;SDS011;31152;49.190;8.122;2023-02-01T07:48:21;22.30;;;4.13;;
30185;SDS011;31152;49.190;8.122;2023-02-01T07:50:56;13.57;;;3.83;;
30185;SDS011;31152;49.190;8.122;2023-02-01T07:53:28;17.85;;;3.90;;
30185;SDS011;31152;49.190;8.122;2023-02-01T07:55:56;23.42;;;4.05;;
30185;SDS011;31152;49.190;8.122;2023-02-01T07:58:23;14.60;;;3.95;;
30185;SDS011;31152;49.190;8.122;2023-02-01T08:00:54;23.60;;;4.10;;
30185;SDS011;31152;49.190;8.122;2023-02-01T08:03:42;20.38;;;3.83;;
30185;SDS011;31152;49.190;8.122;2023-02-01T08:06:09;17.63;;;4.28;;
30185;SDS011;31152;49.190;8.122;2023-02-01T08:08:36;21.40;;;3.95;;
30185;SDS011;31152;49.190;8.122;2023-02-01T08:11:04;18.98;;;4.10;;
30185;SDS011;31152;49.190;8.122;2023-02-01T08:13:34;18.05;;;4.05;;
30185;SDS011;31152;49.190;8.122;2023-02-01T08:16:02;15.90;;;3.80;;
30185;SDS011;31152;49.190;8.122;2023-02-01T08:18:31;18.05;;;3.70;;
30185;SDS011;31152;49.190;8.122;2023-02-01T08:21:02;21.80;;;4.30;;
30185;SDS011;31152;49.190;8.122;2023-02-01T08:23:40;17.02;;;4.25;;
30185;SDS011;31152;49.190;8.122;2023-02-01T08:28:41;21.10;;;4.65;;
30185;SDS011;31152;49.190;8.122;2023-02-01T08:31:11;19.30;;;3.50;;
30185;SDS011;31152;49.190;8.122;2023-02-01T08:33:43;11.48;;;3.10;;
30185;SDS011;31152;49.190;8.122;2023-02-01T08:36:16;24.23;;;4.53;;
30185;SDS011;31152;49.190;8.122;2023-02-01T08:38:46;15.63;;;4.30;;
30185;SDS011;31152;49.190;8.122;2023-02-01T08:41:14;15.13;;;3.95;;
30185;SDS011;31152;49.190;8.122;2023-02-01T08:43:45;22.63;;;4.97;;
30185;SDS011;31152;49.190;8.122;2023-02-01T08:46:15;19.63;;;3.40;;
30185;SDS011;31152;49.190;8.122;2023-02-01T08:48:43;27.63;;;4.35;;
30185;SDS011;31152;49.190;8.122;2023-02-01T08:51:11;20.15;;;3.42;;
30185;SDS011;31152;49.190;8.122;2023-02-01T08:53:40;21.38;;;4.78;;
30185;SDS011;31152;49.190;8.122;2023-02-01T08:56:08;20.58;;;3.88;;
30185;SDS011;31152;49.190;8.122;2023-02-01T08:58:36;21.90;;;3.60;;
30185;SDS011;31152;49.190;8.122;2023-02-01T09:01:04;19.90;;;3.08;;
30185;SDS011;31152;49.190;8.122;2023-02-01T09:03:34;15.02;;;2.85;;
30185;SDS011;31152;49.190;8.122;2023-02-01T09:06:02;22.40;;;4.07;;
30185;SDS011;31152;49.190;8.122;2023-02-01T09:08:33;27.98;;;4.75;;
30185;SDS011;31152;49.190;8.122;2023-02-01T09:11:04;15.77;;;3.28;;
30185;SDS011;31152;49.190;8.122;2023-02-01T09:13:32;21.83;;;2.67;;
30185;SDS011;31152;49.190;8.122;2023-02-01T09:15:59;25.58;;;3.50;;
30185;SDS011;31152;49.190;8.122;2023-02-01T09:18:26;14.93;;;2.72;;
30185;SDS011;31152;49.190;8.122;2023-02-01T09:20:53;22.55;;;3.45;;
30185;SDS011;31152;49.190;8.122;2023-02-01T09:23:20;25.70;;;3.67;;
30185;SDS011;31152;49.190;8.122;2023-02-01T09:25:46;31.33;;;4.15;;
30185;SDS011;31152;49.190;8.122;2023-02-01T09:28:16;25.15;;;3.25;;
30185;SDS011;31152;49.190;8.122;2023-02-01T09:30:44;28.02;;;3.20;;
30185;SDS011;31152;49.190;8.122;2023-02-01T09:33:10;19.05;;;3.30;;
30185;SDS011;31152;49.190;8.122;2023-02-01T09:35:40;29.25;;;3.30;;
30185;SDS011;31152;49.190;8.122;2023-02-01T09:38:06;19.80;;;3.70;;
30185;SDS011;31152;49.190;8.122;2023-02-01T09:40:34;25.42;;;3.70;;
30185;SDS011;31152;49.190;8.122;2023-02-01T09:43:11;17.80;;;3.47;;
30185;SDS011;31152;49.190;8.122;2023-02-01T09:48:32;18.88;;;2.92;;
30185;SDS011;31152;49.190;8.122;2023-02-01T09:51:03;16.05;;;2.88;;
30185;SDS011;31152;49.190;8.122;2023-02-01T09:53:35;25.60;;;4.13;;
30185;SDS011;31152;49.190;8.122;2023-02-01T09:56:06;15.98;;;2.83;;
30185;SDS011;31152;49.190;8.122;2023-02-01T09:58:55;26.90;;;3.20;;
30185;SDS011;31152;49.190;8.122;2023-02-01T10:01:31;43.85;;;5.07;;
30185;SDS011;31152;49.190;8.122;2023-02-01T10:04:03;34.78;;;4.20;;
30185;SDS011;31152;49.190;8.122;2023-02-01T10:09:37;17.58;;;3.00;;
30185;SDS011;31152;49.190;8.122;2023-02-01T10:28:58;21.35;;;3.40;;
30185;SDS011;31152;49.190;8.122;2023-02-01T10:31:29;18.10;;;3.63;;
30185;SDS011;31152;49.190;8.122;2023-02-01T10:34:01;15.82;;;2.58;;
30185;SDS011;31152;49.190;8.122;2023-02-01T10:36:42;50.55;;;5.03;;
30185;SDS011;31152;49.190;8.122;2023-02-01T10:39:23;20.35;;;3.08;;
30185;SDS011;31152;49.190;8.122;2023-02-01T10:41:50;23.55;;;3.25;;
30185;SDS011;31152;49.190;8.122;2023-02-01T10:44:18;46.40;;;5.22;;
30185;SDS011;31152;49.190;8.122;2023-02-01T10:46:50;17.13;;;2.97;;
30185;SDS011;31152;49.190;8.122;2023-02-01T10:49:20;16.63;;;2.67;;
30185;SDS011;31152;49.190;8.122;2023-02-01T10:52:02;15.10;;;3.05;;
30185;SDS011;31152;49.190;8.122;2023-02-01T10:54:34;19.25;;;3.38;;
30185;SDS011;31152;49.190;8.122;2023-02-01T10:57:08;20.30;;;3.72;;
30185;SDS011;31152;49.190;8.122;2023-02-01T10:59:36;22.40;;;4.05;;
30185;SDS011;31152;49.190;8.122;2023-02-01T11:05:08;21.83;;;2.90;;
30185;SDS011;31152;49.190;8.122;2023-02-01T11:07:36;18.55;;;3.15;;
30185;SDS011;31152;49.190;8.122;2023-02-01T11:10:03;21.63;;;3.50;;
30185;SDS011;31152;49.190;8.122;2023-02-01T11:12:34;20.65;;;3.20;;
30185;SDS011;31152;49.190;8.122;2023-02-01T11:15:18;19.67;;;3.75;;
30185;SDS011;31152;49.190;8.122;2023-02-01T11:17:51;22.67;;;2.70;;
30185;SDS011;31152;49.190;8.122;2023-02-01T11:20:20;18.88;;;4.30;;
30185;SDS011;31152;49.190;8.122;2023-02-01T11:23:03;22.20;;;2.90;;
30185;SDS011;31152;49.190;8.122;2023-02-01T11:25:39;21.02;;;3.42;;
30185;SDS011;31152;49.190;8.122;2023-02-01T11:28:30;20.50;;;3.67;;
30185;SDS011;31152;49.190;8.122;2023-02-01T11:31:04;25.15;;;3.33;;
30185;SDS011;31152;49.190;8.122;2023-02-01T11:33:39;23.10;;;3.17;;
30185;SDS011;31152;49.190;8.122;2023-02-01T11:36:17;17.80;;;3.15;;
30185;SDS011;31152;49.190;8.122;2023-02-01T11:38:51;19.45;;;3.40;;
30185;SDS011;31152;49.190;8.122;2023-02-01T11:41:21;21.77;;;2.63;;
30185;SDS011;31152;49.190;8.122;2023-02-01T11:48:57;18.52;;;2.90;;
30185;SDS011;31152;49.190;8.122;2023-02-01T11:52:15;17.15;;;2.55;;
30185;SDS011;31152;49.190;8.122;2023-02-01T11:54:53;13.20;;;2.53;;
30185;SDS011;31152;49.190;8.122;2023-02-01T12:05:44;33.15;;;4.65;;
30185;SDS011;31152;49.190;8.122;2023-02-01T12:11:33;17.83;;;2.42;;
30185;SDS011;31152;49.190;8.122;2023-02-01T12:20:12;23.15;;;3.33;;
30185;SDS011;31152;49.190;8.122;2023-02-01T12:25:59;21.08;;;3.22;;
30185;SDS011;31152;49.190;8.122;2023-02-01T12:34:53;19.75;;;3.00;;
30185;SDS011;31152;49.190;8.122;2023-02-01T12:40:00;17.73;;;2.90;;
30185;SDS011;31152;49.190;8.122;2023-02-01T12:42:53;19.17;;;2.70;;
30185;SDS011;31152;49.190;8.122;2023-02-01T12:45:52;16.85;;;2.35;;
30185;SDS011;31152;49.190;8.122;2023-02-01T12:48:34;20.60;;;2.75;;
30185;SDS011;31152;49.190;8.122;2023-02-01T12:51:12;16.80;;;2.60;;
30185;SDS011;31152;49.190;8.122;2023-02-01T12:56:25;21.50;;;3.00;;
30185;SDS011;31152;49.190;8.122;2023-02-01T12:58:57;22.50;;;2.85;;
30185;SDS011;31152;49.190;8.122;2023-02-01T13:01:37;17.35;;;2.40;;
30185;SDS011;31152;49.190;8.122;2023-02-01T13:06:51;17.02;;;2.78;;
30185;SDS011;31152;49.190;8.122;2023-02-01T13:10:05;15.18;;;2.47;;
30185;SDS011;31152;49.190;8.122;2023-02-01T13:13:02;20.73;;;2.75;;
30185;SDS011;31152;49.190;8.122;2023-02-01T13:15:42;19.20;;;2.03;;
30185;SDS011;31152;49.190;8.122;2023-02-01T13:18:14;40.35;;;4.65;;
30185;SDS011;31152;49.190;8.122;2023-02-01T13:20:54;21.65;;;2.50;;
30185;SDS011;31152;49.190;8.122;2023-02-01T13:23:27;18.77;;;3.13;;
30185;SDS011;31152;49.190;8.122;2023-02-01T13:25:56;19.02;;;3.25;;
30185;SDS011;31152;49.190;8.122;2023-02-01T13:28:26;14.88;;;2.50;;
30185;SDS011;31152;49.190;8.122;2023-02-01T13:42:30;20.33;;;2.63;;
30185;SDS011;31152;49.190;8.122;2023-02-01T13:45:04;55.25;;;8.60;;
30185;SDS011;31152;49.190;8.122;2023-02-01T13:47:40;20.25;;;2.95;;
30185;SDS011;31152;49.190;8.122;2023-02-01T13:50:16;21.95;;;2.83;;
30185;SDS011;31152;49.190;8.122;2023-02-01T13:53:23;16.60;;;2.85;;
30185;SDS011;31152;49.190;8.122;2023-02-01T13:55:54;24.00;;;2.97;;
30185;SDS011;31152;49.190;8.122;2023-02-01T14:19:29;19.30;;;2.92;;
30185;SDS011;31152;49.190;8.122;2023-02-01T14:22:00;22.42;;;3.25;;
30185;SDS011;31152;49.190;8.122;2023-02-01T14:24:53;19.02;;;2.95;;
30185;SDS011;31152;49.190;8.122;2023-02-01T14:27:28;20.02;;;3.28;;
30185;SDS011;31152;49.190;8.122;2023-02-01T14:30:02;16.77;;;2.65;;
30185;SDS011;31152;49.190;8.122;2023-02-01T14:32:34;17.35;;;3.08;;
30185;SDS011;31152;49.190;8.122;2023-02-01T14:35:12;12.18;;;2.75;;
30185;SDS011;31152;49.190;8.122;2023-02-01T14:37:53;14.38;;;2.53;;
30185;SDS011;31152;49.190;8.122;2023-02-01T14:40:30;21.45;;;3.00;;
30185;SDS011;31152;49.190;8.122;2023-02-01T14:42:57;15.00;;;2.65;;
30185;SDS011;31152;49.190;8.122;2023-02-01T14:47:55;17.50;;;2.50;;
30185;SDS011;31152;49.190;8.122;2023-02-01T14:50:44;17.52;;;2.63;;
30185;SDS011;31152;49.190;8.122;2023-02-01T14:53:16;18.13;;;2.88;;
30185;SDS011;31152;49.190;8.122;2023-02-01T15:04:09;16.38;;;2.30;;
30185;SDS011;31152;49.190;8.122;2023-02-01T15:14:39;14.02;;;2.38;;
30185;SDS011;31152;49.190;8.122;2023-02-01T15:17:22;16.00;;;2.90;;
30185;SDS011;31152;49.190;8.122;2023-02-01T15:19:54;16.15;;;2.60;;
30185;SDS011;31152;49.190;8.122;2023-02-01T15:22:34;21.88;;;2.80;;
30185;SDS011;31152;49.190;8.122;2023-02-01T15:25:01;15.63;;;2.40;;
30185;SDS011;31152;49.190;8.122;2023-02-01T15:27:29;14.20;;;2.47;;
30185;SDS011;31152;49.190;8.122;2023-02-01T15:30:16;26.75;;;3.08;;
30185;SDS011;31152;49.190;8.122;2023-02-01T15:32:46;20.35;;;2.60;;
30185;SDS011;31152;49.190;8.122;2023-02-01T15:40:55;17.10;;;2.38;;
30185;SDS011;31152;49.190;8.122;2023-02-01T15:43:28;16.77;;;2.42;;
30185;SDS011;31152;49.190;8.122;2023-02-01T15:45:57;13.02;;;2.80;;
30185;SDS011;31152;49.190;8.122;2023-02-01T15:48:31;19.58;;;2.85;;
30185;SDS011;31152;49.190;8.122;2023-02-01T15:51:05;18.80;;;2.90;;
30185;SDS011;31152;49.190;8.122;2023-02-01T15:53:37;19.13;;;2.75;;
30185;SDS011;31152;49.190;8.122;2023-02-01T15:56:06;15.98;;;3.20;;
30185;SDS011;31152;49.190;8.122;2023-02-01T15:58:36;16.35;;;2.92;;
30185;SDS011;31152;49.190;8.122;2023-02-01T16:01:03;16.42;;;2.45;;
30185;SDS011;31152;49.190;8.122;2023-02-01T16:03:34;20.80;;;2.83;;
30185;SDS011;31152;49.190;8.122;2023-02-01T16:06:07;14.43;;;2.83;;
30185;SDS011;31152;49.190;8.122;2023-02-01T16:08:52;14.98;;;2.72;;
30185;SDS011;31152;49.190;8.122;2023-02-01T16:13:53;16.15;;;3.17;;
30185;SDS011;31152;49.190;8.122;2023-02-01T16:16:20;20.85;;;3.10;;
30185;SDS011;31152;49.190;8.122;2023-02-01T16:18:47;26.23;;;2.75;;
30185;SDS011;31152;49.190;8.122;2023-02-01T16:21:17;27.48;;;3.90;;
30185;SDS011;31152;49.190;8.122;2023-02-01T16:23:49;18.25;;;2.95;;
30185;SDS011;31152;49.190;8.122;2023-02-01T16:26:18;18.13;;;3.30;;
30185;SDS011;31152;49.190;8.122;2023-02-01T16:28:45;14.55;;;3.05;;
30185;SDS011;31152;49.190;8.122;2023-02-01T16:31:13;18.55;;;2.60;;
30185;SDS011;31152;49.190;8.122;2023-02-01T16:33:46;19.90;;;2.67;;
30185;SDS011;31152;49.190;8.122;2023-02-01T16:36:15;11.80;;;2.17;;
30185;SDS011;31152;49.190;8.122;2023-02-01T16:38:42;18.75;;;2.78;;
30185;SDS011;31152;49.190;8.122;2023-02-01T16:41:11;21.83;;;2.72;;
30185;SDS011;31152;49.190;8.122;2023-02-01T16:43:39;15.52;;;2.78;;
30185;SDS011;31152;49.190;8.122;2023-02-01T16:46:13;16.63;;;2.90;;
30185;SDS011;31152;49.190;8.122;2023-02-01T16:48:42;17.20;;;2.40;;
30185;SDS011;31152;49.190;8.122;2023-02-01T16:51:13;22.80;;;2.78;;
30185;SDS011;31152;49.190;8.122;2023-02-01T16:53:42;20.17;;;2.65;;
30185;SDS011;31152;49.190;8.122;2023-02-01T16:56:24;20.05;;;3.72;;
30185;SDS011;31152;49.190;8.122;2023-02-01T16:58:55;15.50;;;3.30;;
30185;SDS011;31152;49.190;8.122;2023-02-01T17:01:22;23.95;;;2.53;;
30185;SDS011;31152;49.190;8.122;2023-02-01T17:03:52;20.83;;;2.53;;
30185;SDS011;31152;49.190;8.122;2023-02-01T17:06:20;16.85;;;2.65;;
30185;SDS011;31152;49.190;8.122;2023-02-01T17:08:50;23.83;;;2.90;;
30185;SDS011;31152;49.190;8.122;2023-02-01T17:11:22;14.13;;;2.42;;
30185;SDS011;31152;49.190;8.122;2023-02-01T17:13:48;18.80;;;3.88;;
30185;SDS011;31152;49.190;8.122;2023-02-01T17:16:24;22.95;;;3.83;;
30185;SDS011;31152;49.190;8.122;2023-02-01T17:18:54;17.67;;;3.00;;
30185;SDS011;31152;49.190;8.122;2023-02-01T17:21:29;19.48;;;2.33;;
30185;SDS011;31152;49.190;8.122;2023-02-01T17:24:03;23.73;;;2.95;;
30185;SDS011;31152;49.190;8.122;2023-02-01T17:26:31;25.95;;;3.20;;
30185;SDS011;31152;49.190;8.122;2023-02-01T17:29:03;17.48;;;2.63;;
30185;SDS011;31152;49.190;8.122;2023-02-01T17:31:29;15.85;;;2.72;;
30185;SDS011;31152;49.190;8.122;2023-02-01T17:33:59;20.35;;;2.78;;